createdAt,value
2017-12-02T00:00:28.948Z,23.40
2017-12-02T00:02:55.526Z,21.77
2017-12-02T00:05:22.662Z,23.33
2017-12-02T00:07:49.491Z,22.13
2017-12-02T00:10:16.304Z,23.67
2017-12-02T00:12:43.138Z,22.42
2017-12-02T00:15:09.966Z,21.87
2017-12-02T00:17:36.747Z,21.37
2017-12-02T00:20:03.620Z,21.85
2017-12-02T00:22:30.458Z,20.25
2017-12-02T00:24:57.303Z,20.02
2017-12-02T00:27:24.150Z,20.17
2017-12-02T00:29:50.934Z,23.05
2017-12-02T00:32:17.779Z,20.10
2017-12-02T00:34:44.634Z,20.42
2017-12-02T00:37:11.468Z,21.05
2017-12-02T00:39:38.312Z,20.30
2017-12-02T00:42:05.162Z,21.40
2017-12-02T00:44:31.946Z,23.00
2017-12-02T00:46:58.775Z,21.05
2017-12-02T00:49:25.622Z,20.83
2017-12-02T00:51:52.439Z,21.92
2017-12-02T00:54:19.263Z,21.15
2017-12-02T00:56:46.069Z,19.63
2017-12-02T00:59:12.859Z,23.87
2017-12-02T01:01:39.650Z,21.65
2017-12-02T01:04:06.473Z,21.77
2017-12-02T01:06:33.308Z,20.45
2017-12-02T01:09:00.098Z,19.92
2017-12-02T01:11:26.951Z,19.65
2017-12-02T01:13:53.743Z,20.50
2017-12-02T01:16:20.545Z,19.48
2017-12-02T01:18:47.396Z,22.05
2017-12-02T01:21:14.219Z,22.13
2017-12-02T01:23:41.002Z,20.55
2017-12-02T01:26:07.843Z,20.30
2017-12-02T01:28:34.644Z,19.65
2017-12-02T01:31:01.427Z,19.00
2017-12-02T01:33:28.243Z,19.15
2017-12-02T01:35:55.067Z,21.27
2017-12-02T01:38:21.887Z,23.65
2017-12-02T01:40:48.696Z,20.00
2017-12-02T01:43:15.524Z,20.83
2017-12-02T01:45:42.343Z,22.45
2017-12-02T01:48:09.199Z,21.60
2017-12-02T01:50:36.047Z,22.35
2017-12-02T01:53:02.883Z,23.92
2017-12-02T01:55:29.710Z,20.95
2017-12-02T01:57:56.966Z,22.23
2017-12-02T02:00:23.778Z,22.37
2017-12-02T02:02:50.631Z,23.65
2017-12-02T02:05:17.422Z,25.02
2017-12-02T02:07:44.210Z,23.40
2017-12-02T02:10:11.359Z,23.48
2017-12-02T02:12:38.149Z,22.08
2017-12-02T02:15:04.946Z,21.83
2017-12-02T02:17:32.094Z,20.35
2017-12-02T02:19:58.886Z,23.00
2017-12-02T02:22:25.690Z,23.12
2017-12-02T02:24:52.563Z,22.10
2017-12-02T02:27:19.372Z,23.15
2017-12-02T02:29:46.188Z,22.10
2017-12-02T02:32:13.030Z,26.23
2017-12-02T02:34:39.860Z,23.83
2017-12-02T02:37:06.646Z,23.55
2017-12-02T02:39:33.774Z,23.92
2017-12-02T02:42:00.578Z,22.65
2017-12-02T02:44:27.367Z,23.95
2017-12-02T02:46:54.215Z,22.80
2017-12-02T02:49:21.036Z,25.67
2017-12-02T02:51:47.838Z,25.88
2017-12-02T02:54:14.653Z,22.58
2017-12-02T02:56:41.471Z,22.43
2017-12-02T02:59:08.297Z,25.70
2017-12-02T03:01:35.101Z,27.80
2017-12-02T03:04:01.892Z,29.65
2017-12-02T03:06:28.719Z,28.48
2017-12-02T03:08:55.539Z,25.98
2017-12-02T03:11:22.643Z,26.17
2017-12-02T03:13:49.621Z,24.37
2017-12-02T03:16:16.450Z,27.65
2017-12-02T03:18:43.312Z,26.25
2017-12-02T03:21:10.421Z,24.95
2017-12-02T03:23:37.266Z,27.47
2017-12-02T03:26:04.515Z,29.33
2017-12-02T03:28:31.562Z,27.15
2017-12-02T03:30:58.395Z,28.52
2017-12-02T03:33:25.263Z,26.05
2017-12-02T03:35:52.133Z,27.73
2017-12-02T03:38:18.983Z,28.50
2017-12-02T03:40:45.828Z,26.58
2017-12-02T03:43:12.676Z,28.05
2017-12-02T03:45:39.772Z,29.50
2017-12-02T03:48:06.603Z,28.80
2017-12-02T03:50:33.761Z,28.20
2017-12-02T03:53:00.623Z,29.17
2017-12-02T03:55:27.438Z,28.87
2017-12-02T03:57:54.606Z,30.85
2017-12-02T04:00:21.453Z,30.30
2017-12-02T04:02:48.604Z,34.97
2017-12-02T04:05:15.451Z,29.63
2017-12-02T04:07:42.586Z,28.15
2017-12-02T04:10:09.390Z,32.92
2017-12-02T04:12:36.240Z,34.60
2017-12-02T04:15:03.108Z,34.65
2017-12-02T04:17:29.926Z,34.47
2017-12-02T04:19:56.771Z,32.40
2017-12-02T04:22:23.635Z,37.78
2017-12-02T04:24:50.467Z,31.83
2017-12-02T04:27:17.266Z,30.37
2017-12-02T04:29:44.387Z,33.22
2017-12-02T04:32:11.201Z,32.00
2017-12-02T04:34:38.027Z,34.73
2017-12-02T04:37:04.908Z,35.90
2017-12-02T04:39:31.730Z,36.53
2017-12-02T04:41:58.911Z,38.72
2017-12-02T04:44:26.059Z,39.05
2017-12-02T04:46:52.870Z,40.08
2017-12-02T04:49:19.694Z,38.67
2017-12-02T04:51:46.538Z,38.63
2017-12-02T04:54:13.379Z,40.35
2017-12-02T04:56:40.219Z,42.72
2017-12-02T04:59:07.075Z,42.63
2017-12-02T05:01:34.162Z,44.50
2017-12-02T05:04:01.315Z,41.15
2017-12-02T05:06:28.206Z,40.30
2017-12-02T05:08:55.059Z,41.50
2017-12-02T05:11:21.907Z,40.00
2017-12-02T05:13:48.787Z,43.42
2017-12-02T05:16:15.638Z,43.55
2017-12-02T05:18:42.491Z,39.70
2017-12-02T05:21:09.375Z,40.72
2017-12-02T05:23:36.198Z,38.30
2017-12-02T05:26:03.006Z,41.88
2017-12-02T05:28:29.846Z,41.37
2017-12-02T05:30:56.649Z,42.72
2017-12-02T05:33:23.508Z,45.08
2017-12-02T05:35:50.334Z,43.72
2017-12-02T05:38:17.178Z,39.33
2017-12-02T05:40:44.019Z,39.97
2017-12-02T05:43:10.923Z,46.45
2017-12-02T05:45:37.719Z,43.17
2017-12-02T05:48:04.535Z,42.22
2017-12-02T05:50:31.352Z,44.20
2017-12-02T05:52:58.385Z,40.17
2017-12-02T05:55:25.248Z,47.97
2017-12-02T05:57:52.133Z,38.80
2017-12-02T06:00:18.978Z,43.42
2017-12-02T06:02:45.806Z,43.63
2017-12-02T06:05:12.678Z,46.20
2017-12-02T06:07:39.523Z,41.77
2017-12-02T06:10:06.362Z,43.37
2017-12-02T06:12:33.235Z,43.40
2017-12-02T06:15:00.026Z,51.83
2017-12-02T06:17:26.842Z,44.30
2017-12-02T06:19:53.958Z,43.00
2017-12-02T06:22:21.006Z,39.23
2017-12-02T06:24:47.865Z,49.67
2017-12-02T06:27:14.711Z,45.65
2017-12-02T06:29:41.522Z,49.60
2017-12-02T06:32:08.591Z,43.20
2017-12-02T06:34:35.454Z,41.50
2017-12-02T06:37:02.295Z,40.28
2017-12-02T06:39:29.133Z,43.87
2017-12-02T06:41:55.985Z,44.70
2017-12-02T06:44:22.784Z,46.17
2017-12-02T06:46:49.601Z,51.73
2017-12-02T06:49:16.446Z,47.80
2017-12-02T06:51:43.265Z,52.60
2017-12-02T06:54:10.077Z,45.58
2017-12-02T06:56:36.921Z,47.13
2017-12-02T06:59:03.722Z,48.10
2017-12-02T07:01:30.576Z,41.70
2017-12-02T07:03:57.422Z,48.53
2017-12-02T07:06:24.258Z,54.00
2017-12-02T07:08:51.087Z,53.60
2017-12-02T07:11:17.959Z,43.15
2017-12-02T07:13:44.795Z,49.67
2017-12-02T07:16:11.639Z,48.78
2017-12-02T07:18:38.496Z,50.45
2017-12-02T07:21:05.314Z,46.05
2017-12-02T07:23:32.171Z,47.55
2017-12-02T07:25:58.998Z,40.53
2017-12-02T07:28:26.083Z,38.60
2017-12-02T07:30:52.944Z,36.28
2017-12-02T07:33:19.782Z,32.72
2017-12-02T07:35:46.628Z,34.30
2017-12-02T07:38:13.445Z,32.90
2017-12-02T07:40:40.313Z,50.53
2017-12-02T07:43:07.106Z,45.12
2017-12-02T07:45:33.936Z,38.60
2017-12-02T07:48:00.787Z,44.17
2017-12-02T07:50:27.598Z,50.80
2017-12-02T07:52:54.447Z,43.08
2017-12-02T07:55:21.319Z,48.38
2017-12-02T07:57:48.146Z,77.40
2017-12-02T08:00:14.963Z,66.37
2017-12-02T08:02:41.854Z,124.00
2017-12-02T08:05:08.687Z,211.02
2017-12-02T08:07:35.501Z,88.65
2017-12-02T08:10:02.356Z,86.87
2017-12-02T08:12:29.154Z,45.55
2017-12-02T08:14:56.311Z,62.85
2017-12-02T08:17:23.483Z,136.68
2017-12-02T08:19:50.323Z,50.80
2017-12-02T08:22:17.122Z,77.05
2017-12-02T08:24:43.964Z,164.50
2017-12-02T08:27:11.033Z,71.30
2017-12-02T08:29:37.856Z,110.80
2017-12-02T08:32:04.720Z,71.57
2017-12-02T08:34:31.542Z,73.37
2017-12-02T08:36:58.615Z,40.15
2017-12-02T08:39:25.434Z,64.65
2017-12-02T08:41:52.505Z,43.13
2017-12-02T08:44:19.325Z,52.05
2017-12-02T08:46:46.243Z,43.83
2017-12-02T08:49:13.034Z,45.15
2017-12-02T08:51:39.946Z,46.03
2017-12-02T08:54:06.762Z,72.50
2017-12-02T08:56:34.475Z,97.28
2017-12-02T08:59:01.319Z,109.30
2017-12-02T09:01:28.153Z,150.98
2017-12-02T09:03:54.998Z,43.90
2017-12-02T09:06:21.826Z,49.13
2017-12-02T09:08:48.903Z,60.10
2017-12-02T09:11:16.056Z,42.75
2017-12-02T09:13:42.883Z,43.30
2017-12-02T09:16:09.730Z,40.80
2017-12-02T09:18:36.584Z,38.15
2017-12-02T09:21:03.398Z,37.00
2017-12-02T09:23:30.580Z,37.17
2017-12-02T09:25:57.379Z,36.38
2017-12-02T09:28:24.191Z,35.63
2017-12-02T09:30:51.037Z,32.65
2017-12-02T09:33:17.885Z,32.08
2017-12-02T09:35:44.695Z,33.85
2017-12-02T09:38:11.528Z,28.83
2017-12-02T09:40:38.371Z,38.65
2017-12-02T09:43:05.195Z,37.67
2017-12-02T09:45:32.080Z,38.17
2017-12-02T09:47:58.902Z,51.88
2017-12-02T09:50:25.710Z,46.45
2017-12-02T09:52:52.550Z,40.67
2017-12-02T09:55:19.455Z,47.10
2017-12-02T09:57:46.261Z,43.60
2017-12-02T10:00:13.086Z,45.97
2017-12-02T10:02:40.275Z,48.70
2017-12-02T10:05:07.143Z,42.80
2017-12-02T10:07:34.010Z,41.90
2017-12-02T10:10:00.809Z,40.55
2017-12-02T10:12:27.647Z,34.40
2017-12-02T10:14:54.532Z,37.65
2017-12-02T10:17:21.338Z,33.43
2017-12-02T10:19:48.134Z,34.33
2017-12-02T10:22:14.967Z,36.58
2017-12-02T10:24:41.790Z,33.22
2017-12-02T10:27:08.906Z,35.00
2017-12-02T10:29:35.767Z,33.83
2017-12-02T10:32:02.566Z,36.63
2017-12-02T10:34:29.363Z,36.77
2017-12-02T10:36:56.236Z,40.25
2017-12-02T10:39:23.042Z,36.97
2017-12-02T10:41:49.842Z,36.22
2017-12-02T10:44:17.021Z,36.55
2017-12-02T10:46:43.826Z,40.00
2017-12-02T10:49:10.650Z,36.67
2017-12-02T10:51:37.477Z,42.95
2017-12-02T10:54:04.316Z,36.83
2017-12-02T10:56:31.137Z,39.55
2017-12-02T10:58:57.954Z,36.33
2017-12-02T11:01:24.774Z,38.72
2017-12-02T11:03:51.593Z,35.45
2017-12-02T11:06:18.403Z,36.83
2017-12-02T11:08:45.247Z,36.95
2017-12-02T11:11:12.056Z,39.25
2017-12-02T11:13:38.870Z,37.35
2017-12-02T11:16:05.707Z,38.65
2017-12-02T11:18:32.530Z,34.95
2017-12-02T11:20:59.423Z,35.60
2017-12-02T11:23:26.213Z,38.47
2017-12-02T11:25:53.051Z,38.00
2017-12-02T11:28:20.190Z,38.63
2017-12-02T11:30:47.012Z,38.58
2017-12-02T11:33:13.821Z,40.50
2017-12-02T11:35:40.680Z,39.17
2017-12-02T11:38:07.508Z,39.22
2017-12-02T11:40:34.386Z,39.92
2017-12-02T11:43:01.224Z,42.40
2017-12-02T11:45:28.307Z,43.07
2017-12-02T11:47:55.101Z,40.58
2017-12-02T11:50:21.922Z,42.08
2017-12-02T11:52:48.710Z,41.47
2017-12-02T11:55:15.553Z,43.83
2017-12-02T11:57:42.723Z,42.15
2017-12-02T12:00:09.549Z,38.88
2017-12-02T12:02:36.368Z,40.33
2017-12-02T12:05:03.207Z,38.50
2017-12-02T12:07:29.990Z,37.97
2017-12-02T12:09:56.811Z,37.15
2017-12-02T12:12:23.651Z,32.78
2017-12-02T12:14:50.446Z,31.67
2017-12-02T12:17:17.250Z,34.58
2017-12-02T12:19:44.305Z,31.12
2017-12-02T12:22:11.102Z,31.50
2017-12-02T12:24:37.940Z,28.70
2017-12-02T12:27:04.767Z,29.73
2017-12-02T12:29:31.562Z,29.63
2017-12-02T12:31:58.386Z,29.85
2017-12-02T12:34:25.467Z,28.50
2017-12-02T12:36:52.295Z,29.25
2017-12-02T12:39:19.340Z,28.25
2017-12-02T12:41:46.177Z,25.37
2017-12-02T12:44:12.975Z,24.25
2017-12-02T12:46:39.761Z,23.87
2017-12-02T12:49:06.618Z,21.10
2017-12-02T12:51:33.435Z,22.60
2017-12-02T12:54:00.524Z,21.30
2017-12-02T12:56:27.370Z,21.55
2017-12-02T12:58:54.520Z,22.30
2017-12-02T13:01:21.334Z,24.83
2017-12-02T13:03:48.176Z,27.15
2017-12-02T13:06:14.975Z,24.45
2017-12-02T13:08:41.763Z,26.40
2017-12-02T13:11:08.611Z,27.02
2017-12-02T13:13:35.451Z,26.08
2017-12-02T13:16:02.247Z,26.45
2017-12-02T13:18:29.107Z,25.12
2017-12-02T13:20:55.919Z,24.80
2017-12-02T13:23:22.751Z,26.30
2017-12-02T13:25:49.562Z,23.25
2017-12-02T13:28:16.383Z,22.25
2017-12-02T13:30:43.166Z,20.27
2017-12-02T13:33:09.978Z,23.92
2017-12-02T13:35:36.782Z,22.30
2017-12-02T13:38:03.672Z,21.35
2017-12-02T13:40:30.519Z,22.23
2017-12-02T13:42:57.345Z,21.37
2017-12-02T13:45:24.172Z,20.25
2017-12-02T13:47:51.027Z,22.10
2017-12-02T13:50:18.122Z,22.20
2017-12-02T13:52:45.275Z,21.08
2017-12-02T13:55:12.085Z,22.87
2017-12-02T13:57:38.903Z,21.62
2017-12-02T14:00:05.730Z,23.67
2017-12-02T14:02:32.558Z,25.05
2017-12-02T14:04:59.380Z,22.65
2017-12-02T14:07:26.166Z,24.77
2017-12-02T14:09:53.019Z,23.38
2017-12-02T14:12:19.848Z,24.52
2017-12-02T14:14:46.642Z,22.65
2017-12-02T14:17:13.495Z,24.15
2017-12-02T14:19:40.311Z,24.77
2017-12-02T14:22:07.136Z,23.02
2017-12-02T14:24:34.236Z,22.30
2017-12-02T14:27:01.034Z,22.27
2017-12-02T14:29:27.913Z,21.33
2017-12-02T14:31:54.721Z,20.58
2017-12-02T14:34:21.546Z,20.27
2017-12-02T14:36:48.354Z,17.90
2017-12-02T14:39:15.215Z,18.45
2017-12-02T14:41:42.031Z,18.58
2017-12-02T14:44:08.818Z,20.10
2017-12-02T14:46:35.646Z,20.47
2017-12-02T14:49:02.463Z,21.87
2017-12-02T14:51:29.284Z,21.08
2017-12-02T14:53:56.127Z,25.00
2017-12-02T14:56:22.948Z,22.75
2017-12-02T14:58:50.073Z,23.60
2017-12-02T15:01:16.879Z,25.97
2017-12-02T15:03:44.039Z,32.83
2017-12-02T15:06:10.872Z,21.73
2017-12-02T15:08:37.682Z,21.90
2017-12-02T15:11:04.769Z,19.27
2017-12-02T15:13:31.584Z,19.87
2017-12-02T15:15:58.431Z,21.50
2017-12-02T15:18:25.246Z,20.70
2017-12-02T15:20:52.083Z,22.02
2017-12-02T15:23:18.935Z,19.62
2017-12-02T15:25:45.761Z,18.90
2017-12-02T15:28:12.870Z,18.90
2017-12-02T15:30:39.711Z,19.42
2017-12-02T15:33:06.502Z,19.25
2017-12-02T15:35:33.343Z,19.83
2017-12-02T15:38:00.154Z,18.27
2017-12-02T15:40:26.955Z,17.83
2017-12-02T15:42:53.742Z,19.02
2017-12-02T15:45:20.554Z,19.10
2017-12-02T15:47:47.346Z,18.77
2017-12-02T15:50:14.460Z,20.00
2017-12-02T15:52:41.608Z,19.00
2017-12-02T15:55:08.390Z,18.25
2017-12-02T15:57:35.211Z,19.10
2017-12-02T16:00:02.061Z,19.70
2017-12-02T16:02:28.867Z,18.27
2017-12-02T16:04:55.682Z,18.95
2017-12-02T16:07:22.553Z,18.33
2017-12-02T16:09:49.372Z,18.10
2017-12-02T16:12:16.456Z,16.98
2017-12-02T16:14:43.631Z,18.73
2017-12-02T16:17:10.451Z,17.80
2017-12-02T16:19:37.275Z,18.50
2017-12-02T16:22:04.130Z,17.80
2017-12-02T16:24:30.992Z,18.23
2017-12-02T16:26:57.808Z,17.20
2017-12-02T16:29:24.646Z,17.60
2017-12-02T16:31:51.475Z,18.12
2017-12-02T16:34:18.291Z,28.65
2017-12-02T16:36:45.122Z,20.12
2017-12-02T16:39:12.247Z,19.02
2017-12-02T16:41:39.075Z,18.52
2017-12-02T16:44:05.949Z,18.70
2017-12-02T16:46:33.082Z,18.15
2017-12-02T16:48:59.915Z,18.87
2017-12-02T16:51:26.722Z,18.45
2017-12-02T16:53:53.530Z,19.15
2017-12-02T16:56:20.392Z,19.15
2017-12-02T16:58:47.256Z,20.90
2017-12-02T17:01:14.056Z,22.17
2017-12-02T17:03:40.893Z,22.10
2017-12-02T17:06:07.733Z,23.12
2017-12-02T17:08:34.556Z,25.45
2017-12-02T17:11:01.338Z,21.37
2017-12-02T17:13:28.201Z,22.23
2017-12-02T17:15:55.028Z,20.55
2017-12-02T17:18:21.847Z,20.92
2017-12-02T17:20:48.689Z,18.47
2017-12-02T17:23:15.726Z,21.50
2017-12-02T17:25:42.513Z,20.48
2017-12-02T17:28:09.379Z,16.83
2017-12-02T17:30:36.165Z,17.67
2017-12-02T17:33:02.954Z,18.80
2017-12-02T17:35:30.156Z,17.80
2017-12-02T17:37:56.950Z,19.85
2017-12-02T17:40:23.750Z,18.95
2017-12-02T17:42:50.615Z,20.65
2017-12-02T17:45:17.401Z,18.20
2017-12-02T17:47:44.218Z,18.90
2017-12-02T17:50:11.033Z,18.60
2017-12-02T17:52:37.822Z,24.50
2017-12-02T17:55:04.647Z,17.85
2017-12-02T17:57:31.464Z,23.87
2017-12-02T17:59:58.254Z,19.45
2017-12-02T18:02:25.054Z,20.17
2017-12-02T18:04:51.915Z,20.15
2017-12-02T18:07:19.002Z,19.00
2017-12-02T18:09:45.794Z,20.02
2017-12-02T18:12:12.639Z,19.05
2017-12-02T18:14:39.463Z,19.52
2017-12-02T18:17:06.282Z,20.12
2017-12-02T18:19:33.422Z,19.80
2017-12-02T18:22:00.213Z,20.15
2017-12-02T18:24:27.037Z,19.37
2017-12-02T18:26:53.846Z,19.33
2017-12-02T18:29:20.637Z,21.55
2017-12-02T18:31:47.437Z,21.10
2017-12-02T18:34:14.299Z,19.77
2017-12-02T18:36:41.127Z,23.27
2017-12-02T18:39:08.047Z,20.67
2017-12-02T18:41:34.904Z,21.50
2017-12-02T18:44:01.962Z,24.55
2017-12-02T18:46:28.771Z,21.60
2017-12-02T18:48:55.623Z,20.02
2017-12-02T18:51:22.460Z,20.58
2017-12-02T18:53:49.250Z,22.05
2017-12-02T18:56:16.086Z,26.87
2017-12-02T18:58:42.887Z,31.20
2017-12-02T19:01:09.670Z,23.73
2017-12-02T19:03:36.527Z,22.42
2017-12-02T19:06:03.343Z,23.12
2017-12-02T19:08:30.122Z,24.83
2017-12-02T19:10:56.975Z,24.35
2017-12-02T19:13:23.794Z,24.20
2017-12-02T19:15:50.927Z,23.57
2017-12-02T19:18:17.745Z,25.00
2017-12-02T19:20:44.625Z,24.50
2017-12-02T19:23:11.457Z,22.50
2017-12-02T19:25:38.305Z,21.75
2017-12-02T19:28:05.128Z,22.25
2017-12-02T19:30:32.781Z,19.83
2017-12-02T19:32:59.663Z,22.53
2017-12-02T19:35:26.462Z,23.10
2017-12-02T19:37:53.290Z,31.83
2017-12-02T19:40:20.097Z,21.20
2017-12-02T19:42:46.915Z,20.70
2017-12-02T19:45:13.697Z,24.33
2017-12-02T19:47:40.519Z,21.10
2017-12-02T19:50:07.344Z,20.73
2017-12-02T19:52:34.130Z,21.15
2017-12-02T19:55:00.950Z,20.70
2017-12-02T19:57:27.760Z,21.45
2017-12-02T19:59:54.592Z,23.50
2017-12-02T20:02:21.691Z,21.58
2017-12-02T20:04:48.476Z,23.87
2017-12-02T20:07:15.265Z,22.27
2017-12-02T20:09:42.116Z,23.30
2017-12-02T20:12:08.917Z,23.55
2017-12-02T20:14:35.807Z,24.25
2017-12-02T20:17:02.626Z,25.37
2017-12-02T20:19:29.438Z,25.10
2017-12-02T20:21:56.299Z,24.42
2017-12-02T20:24:23.133Z,24.37
2017-12-02T20:26:49.958Z,25.65
2017-12-02T20:29:16.754Z,24.27
2017-12-02T20:31:43.566Z,25.05
2017-12-02T20:34:10.419Z,25.65
2017-12-02T20:36:37.238Z,24.02
2017-12-02T20:39:04.046Z,23.85
2017-12-02T20:41:30.842Z,26.00
2017-12-02T20:43:57.664Z,30.50
2017-12-02T20:46:24.478Z,25.87
2017-12-02T20:48:51.258Z,28.03
2017-12-02T20:51:18.054Z,28.05
2017-12-02T20:53:44.902Z,28.05
2017-12-02T20:56:11.723Z,30.83
2017-12-02T20:58:38.543Z,28.52
2017-12-02T21:01:05.354Z,30.10
2017-12-02T21:03:32.209Z,30.48
2017-12-02T21:05:59.035Z,29.60
2017-12-02T21:08:25.891Z,29.10
2017-12-02T21:10:52.715Z,28.60
2017-12-02T21:13:19.513Z,30.42
2017-12-02T21:15:46.366Z,30.37
2017-12-02T21:18:13.182Z,31.92
2017-12-02T21:20:39.987Z,28.77
2017-12-02T21:23:06.814Z,30.65
2017-12-02T21:25:33.614Z,32.90
2017-12-02T21:28:00.447Z,30.23
2017-12-02T21:30:27.270Z,30.10
2017-12-02T21:32:54.140Z,28.95
2017-12-02T21:35:21.057Z,30.80
2017-12-02T21:37:47.868Z,31.07
2017-12-02T21:40:14.654Z,32.30
2017-12-02T21:42:41.734Z,28.52
2017-12-02T21:45:08.546Z,31.50
2017-12-02T21:47:35.606Z,29.53
2017-12-02T21:50:02.463Z,30.37
2017-12-02T21:52:29.323Z,30.60
2017-12-02T21:54:56.111Z,32.33
2017-12-02T21:57:22.951Z,30.25
2017-12-02T21:59:49.770Z,32.90
2017-12-02T22:02:16.594Z,30.80
2017-12-02T22:04:43.389Z,31.33
2017-12-02T22:07:10.330Z,31.55
2017-12-02T22:09:37.512Z,32.00
2017-12-02T22:12:04.339Z,30.20
2017-12-02T22:14:31.235Z,30.70
2017-12-02T22:16:58.062Z,30.92
2017-12-02T22:19:25.182Z,31.20
2017-12-02T22:21:52.012Z,33.15
2017-12-02T22:24:18.818Z,34.38
2017-12-02T22:26:45.606Z,30.12
2017-12-02T22:29:12.461Z,29.92
2017-12-02T22:31:39.283Z,29.10
2017-12-02T22:34:06.069Z,29.15
2017-12-02T22:36:32.907Z,27.73
2017-12-02T22:38:59.723Z,31.62
2017-12-02T22:41:26.543Z,31.65
2017-12-02T22:43:53.387Z,31.33
2017-12-02T22:46:20.170Z,28.97
2017-12-02T22:48:46.970Z,28.97
2017-12-02T22:51:13.807Z,31.27
2017-12-02T22:53:40.627Z,27.90
2017-12-02T22:56:07.422Z,26.55
2017-12-02T22:58:34.288Z,28.30
2017-12-02T23:01:01.103Z,30.42
2017-12-02T23:03:27.932Z,28.05
2017-12-02T23:05:54.779Z,29.10
2017-12-02T23:08:21.607Z,29.35
2017-12-02T23:10:48.400Z,28.83
2017-12-02T23:13:15.527Z,29.60
2017-12-02T23:15:42.334Z,29.60
2017-12-02T23:18:09.155Z,30.15
2017-12-02T23:20:35.966Z,28.77
2017-12-02T23:23:02.761Z,29.45
2017-12-02T23:25:29.614Z,31.15
2017-12-02T23:27:56.445Z,31.05
2017-12-02T23:30:23.268Z,31.75
2017-12-02T23:32:50.088Z,31.52
2017-12-02T23:35:16.898Z,31.90
2017-12-02T23:37:43.689Z,33.80
2017-12-02T23:40:10.511Z,30.27
2017-12-02T23:42:37.351Z,33.08
2017-12-02T23:45:04.172Z,34.00
2017-12-02T23:47:30.999Z,32.50
2017-12-02T23:49:57.822Z,33.13
2017-12-02T23:52:24.641Z,34.42
2017-12-02T23:54:51.442Z,34.30
2017-12-02T23:57:18.273Z,34.58
2017-12-02T23:59:45.078Z,32.72
